Time;durP1;ratioP1;P1;durP2;ratioP2;P2;SDS_P1;SDS_P2;PMS_P1;PMS_P2;Temp;Humidity;BMP_temperature;BMP_pressure;BME280_temperature;BME280_humidity;BME280_pressure;Samples;Min_cycle;Max_cycle;Signal;HPM_P1;HPM_P2
2019/10/09 00:02:17;;;;;;;2.31;1.74;;;;;;;19.63;56.99;100171.42;;;;-47
2019/10/09 00:05:17;;;;;;;1.80;1.61;;;;;;;19.63;56.99;100173.03;;;;-48
2019/10/09 00:08:17;;;;;;;1.94;1.73;;;;;;;19.63;57.00;100175.38;;;;-47
2019/10/09 00:11:16;;;;;;;1.72;1.59;;;;;;;19.62;57.00;100179.66;;;;-47
2019/10/09 00:14:16;;;;;;;1.92;1.72;;;;;;;19.62;56.97;100175.73;;;;-47
2019/10/09 00:17:16;;;;;;;2.05;1.61;;;;;;;19.61;56.99;100180.56;;;;-49
2019/10/09 00:20:17;;;;;;;2.61;1.71;;;;;;;19.61;56.99;100183.14;;;;-48
2019/10/09 00:23:17;;;;;;;2.56;1.85;;;;;;;19.60;57.00;100185.14;;;;-57
2019/10/09 00:26:17;;;;;;;1.90;1.70;;;;;;;19.60;56.98;100182.20;;;;-48
2019/10/09 00:29:17;;;;;;;2.09;1.77;;;;;;;19.60;57.00;100190.57;;;;-48
2019/10/09 00:32:16;;;;;;;1.95;1.65;;;;;;;19.60;57.00;100187.55;;;;-47
2019/10/09 00:35:17;;;;;;;2.53;1.67;;;;;;;19.59;56.94;100193.31;;;;-51
2019/10/09 00:38:17;;;;;;;2.30;1.59;;;;;;;19.60;56.96;100189.30;;;;-51
2019/10/09 00:41:16;;;;;;;1.88;1.68;;;;;;;19.59;57.01;100189.52;;;;-51
2019/10/09 00:44:17;;;;;;;1.65;1.55;;;;;;;19.59;56.95;100185.00;;;;-51
2019/10/09 00:47:17;;;;;;;1.92;1.65;;;;;;;19.58;56.99;100182.62;;;;-58
2019/10/09 00:50:16;;;;;;;1.83;1.59;;;;;;;19.58;56.94;100180.05;;;;-58
2019/10/09 00:53:16;;;;;;;1.91;1.48;;;;;;;19.58;56.97;100184.13;;;;-58
2019/10/09 00:56:17;;;;;;;1.71;1.61;;;;;;;19.58;56.97;100186.58;;;;-58
2019/10/09 00:59:17;;;;;;;1.89;1.52;;;;;;;19.58;56.93;100187.91;;;;-58
2019/10/09 01:02:16;;;;;;;2.58;1.72;;;;;;;19.57;56.93;100183.86;;;;-58
2019/10/09 01:05:17;;;;;;;2.00;1.63;;;;;;;19.57;56.94;100188.94;;;;-47
2019/10/09 01:08:16;;;;;;;1.57;1.47;;;;;;;19.57;56.95;100197.59;;;;-48
2019/10/09 01:11:16;;;;;;;1.89;1.69;;;;;;;19.56;56.93;100187.56;;;;-50
2019/10/09 01:14:17;;;;;;;1.71;1.60;;;;;;;19.56;56.96;100181.87;;;;-51
2019/10/09 01:17:17;;;;;;;1.73;1.57;;;;;;;19.55;56.96;100187.29;;;;-51
2019/10/09 01:20:17;;;;;;;1.59;1.41;;;;;;;19.56;56.96;100188.40;;;;-50
2019/10/09 01:23:17;;;;;;;1.87;1.50;;;;;;;19.55;56.95;100191.88;;;;-51
2019/10/09 01:26:17;;;;;;;1.74;1.47;;;;;;;19.55;56.94;100191.55;;;;-51
2019/10/09 01:29:16;;;;;;;2.39;1.61;;;;;;;19.55;56.91;100195.06;;;;-50
2019/10/09 01:32:16;;;;;;;1.72;1.49;;;;;;;19.54;56.96;100194.45;;;;-51
2019/10/09 01:35:16;;;;;;;1.83;1.55;;;;;;;19.53;56.99;100201.52;;;;-58
2019/10/09 01:38:17;;;;;;;1.61;1.50;;;;;;;19.53;56.97;100201.34;;;;-58
2019/10/09 01:41:16;;;;;;;1.62;1.52;;;;;;;19.52;57.01;100205.27;;;;-58
2019/10/09 01:44:17;;;;;;;2.33;1.50;;;;;;;19.53;56.97;100202.95;;;;-47
2019/10/09 01:47:17;;;;;;;1.69;1.40;;;;;;;19.52;56.95;100200.91;;;;-48
2019/10/09 01:50:17;;;;;;;1.95;1.40;;;;;;;19.53;56.98;100198.33;;;;-47
2019/10/09 01:53:16;;;;;;;1.63;1.45;;;;;;;19.52;56.94;100197.22;;;;-59
2019/10/09 01:56:17;;;;;;;1.50;1.40;;;;;;;19.53;56.93;100190.46;;;;-58
2019/10/09 01:59:16;;;;;;;1.43;1.33;;;;;;;19.53;56.92;100189.45;;;;-58
2019/10/09 02:02:16;;;;;;;1.49;1.39;;;;;;;19.53;56.92;100189.95;;;;-58
2019/10/09 02:05:17;;;;;;;2.19;1.65;;;;;;;19.52;56.92;100199.06;;;;-51
2019/10/09 02:08:17;;;;;;;1.76;1.45;;;;;;;19.51;56.93;100194.09;;;;-50
2019/10/09 02:11:17;;;;;;;2.06;1.61;;;;;;;19.52;56.91;100196.61;;;;-51
2019/10/09 02:14:17;;;;;;;1.53;1.43;;;;;;;19.51;56.93;100188.47;;;;-58
2019/10/09 02:17:16;;;;;;;1.63;1.48;;;;;;;19.51;56.92;100190.48;;;;-51
2019/10/09 02:20:16;;;;;;;1.51;1.41;;;;;;;19.51;56.92;100188.03;;;;-59
2019/10/09 02:23:17;;;;;;;1.56;1.40;;;;;;;19.51;56.92;100192.72;;;;-58
2019/10/09 02:26:16;;;;;;;1.40;1.30;;;;;;;19.50;56.94;100194.63;;;;-58
2019/10/09 02:29:16;;;;;;;1.85;1.50;;;;;;;19.49;56.89;100195.93;;;;-59
2019/10/09 02:32:16;;;;;;;1.55;1.40;;;;;;;19.50;56.94;100198.88;;;;-58
2019/10/09 02:35:17;;;;;;;1.41;1.31;;;;;;;19.48;56.93;100200.24;;;;-51
2019/10/09 02:38:16;;;;;;;1.69;1.42;;;;;;;19.48;56.94;100200.31;;;;-51
2019/10/09 02:41:17;;;;;;;1.50;1.35;;;;;;;19.48;56.95;100203.66;;;;-51
2019/10/09 02:44:16;;;;;;;1.53;1.39;;;;;;;19.48;56.92;100206.27;;;;-48
2019/10/09 02:47:17;;;;;;;2.49;1.64;;;;;;;19.48;56.93;100203.42;;;;-58
2019/10/09 02:50:17;;;;;;;1.66;1.52;;;;;;;19.48;56.92;100204.49;;;;-50
2019/10/09 02:53:17;;;;;;;1.83;1.30;;;;;;;19.48;56.95;100202.92;;;;-58
2019/10/09 02:56:17;;;;;;;2.67;1.50;;;;;;;19.48;56.90;100194.28;;;;-58
2019/10/09 02:59:17;;;;;;;1.51;1.41;;;;;;;19.48;56.90;100194.78;;;;-51
2019/10/09 03:02:16;;;;;;;1.40;1.30;;;;;;;19.47;56.91;100194.52;;;;-58
2019/10/09 03:05:17;;;;;;;1.36;1.26;;;;;;;19.47;56.87;100203.05;;;;-58
2019/10/09 03:08:16;;;;;;;2.30;1.35;;;;;;;19.46;56.89;100196.81;;;;-51
2019/10/09 03:11:17;;;;;;;2.05;1.53;;;;;;;19.47;56.86;100187.91;;;;-50
2019/10/09 03:14:16;;;;;;;1.69;1.40;;;;;;;19.46;56.87;100192.63;;;;-51
2019/10/09 03:17:16;;;;;;;1.32;1.22;;;;;;;19.47;56.86;100191.49;;;;-59
2019/10/09 03:20:16;;;;;;;1.47;1.37;;;;;;;19.46;56.86;100195.07;;;;-50
2019/10/09 03:23:16;;;;;;;1.89;1.21;;;;;;;19.47;56.84;100195.02;;;;-51
2019/10/09 03:26:17;;;;;;;1.36;1.26;;;;;;;19.47;56.87;100199.09;;;;-51
2019/10/09 03:29:17;;;;;;;1.43;1.33;;;;;;;19.47;56.85;100202.95;;;;-50
2019/10/09 03:33:17;;;;;;;1.47;1.30;;;;;;;19.45;56.87;100205.14;;;;-47
2019/10/09 03:39:23;;;;;;;1.39;1.29;;;;;;;19.45;56.86;100202.13;;;;-50
2019/10/09 03:42:17;;;;;;;1.38;1.28;;;;;;;19.45;56.84;100210.00;;;;-51
2019/10/09 03:45:16;;;;;;;1.38;1.28;;;;;;;19.45;56.86;100210.34;;;;-51
2019/10/09 03:48:17;;;;;;;1.51;1.30;;;;;;;19.44;56.84;100209.36;;;;-47
2019/10/09 03:51:17;;;;;;;1.39;1.29;;;;;;;19.44;56.85;100211.14;;;;-47
2019/10/09 03:54:17;;;;;;;1.34;1.23;;;;;;;19.43;56.83;100209.42;;;;-50
2019/10/09 03:57:17;;;;;;;1.89;1.40;;;;;;;19.44;56.82;100223.97;;;;-51
2019/10/09 04:00:16;;;;;;;1.43;1.30;;;;;;;19.43;56.82;100220.58;;;;-50
2019/10/09 04:03:16;;;;;;;1.31;1.21;;;;;;;19.41;56.85;100217.75;;;;-47
2019/10/09 04:06:17;;;;;;;1.40;1.30;;;;;;;19.40;56.85;100223.47;;;;-47
2019/10/09 04:09:16;;;;;;;1.72;1.30;;;;;;;19.42;56.86;100228.30;;;;-58
2019/10/09 04:12:16;;;;;;;1.93;1.40;;;;;;;19.42;56.82;100225.85;;;;-50
2019/10/09 04:15:17;;;;;;;1.40;1.30;;;;;;;19.42;56.83;100231.22;;;;-50
2019/10/09 04:18:17;;;;;;;1.77;1.50;;;;;;;19.42;56.84;100236.44;;;;-50
2019/10/09 04:21:17;;;;;;;1.29;1.19;;;;;;;19.41;56.83;100234.35;;;;-51
2019/10/09 04:24:17;;;;;;;1.56;1.29;;;;;;;19.43;56.84;100229.41;;;;-52
2019/10/09 04:27:16;;;;;;;1.80;1.42;;;;;;;19.43;56.89;100234.60;;;;-50
2019/10/09 04:30:16;;;;;;;1.48;1.21;;;;;;;19.43;56.88;100237.72;;;;-51
2019/10/09 04:33:16;;;;;;;1.48;1.28;;;;;;;19.42;56.88;100232.48;;;;-50
2019/10/09 04:36:17;;;;;;;1.77;1.29;;;;;;;19.42;56.88;100237.88;;;;-47
2019/10/09 04:39:17;;;;;;;1.73;1.35;;;;;;;19.41;56.87;100239.75;;;;-47
2019/10/09 04:42:17;;;;;;;1.37;1.22;;;;;;;19.41;56.87;100238.38;;;;-47
2019/10/09 04:45:16;;;;;;;1.37;1.23;;;;;;;19.41;56.85;100235.36;;;;-52
2019/10/09 04:48:16;;;;;;;1.54;1.30;;;;;;;19.42;56.81;100236.67;;;;-50
2019/10/09 04:51:16;;;;;;;1.40;1.30;;;;;;;19.43;56.80;100237.11;;;;-51
2019/10/09 04:54:16;;;;;;;1.61;1.37;;;;;;;19.42;56.79;100239.42;;;;-51
2019/10/09 04:57:17;;;;;;;2.00;1.40;;;;;;;19.41;56.81;100246.91;;;;-50
2019/10/09 05:00:17;;;;;;;1.64;1.30;;;;;;;19.40;56.83;100253.20;;;;-50
2019/10/09 05:03:17;;;;;;;2.01;1.27;;;;;;;19.40;56.82;100249.55;;;;-50
2019/10/09 05:06:17;;;;;;;1.79;1.30;;;;;;;19.40;56.81;100245.97;;;;-47
2019/10/09 05:09:17;;;;;;;1.29;1.19;;;;;;;19.40;56.81;100258.42;;;;-50
2019/10/09 05:12:17;;;;;;;2.15;1.52;;;;;;;19.41;56.77;100259.34;;;;-51
2019/10/09 05:15:16;;;;;;;1.36;1.26;;;;;;;19.41;56.74;100258.91;;;;-52
2019/10/09 05:18:16;;;;;;;1.44;1.33;;;;;;;19.41;56.73;100258.94;;;;-57
2019/10/09 05:21:17;;;;;;;1.31;1.20;;;;;;;19.39;56.79;100253.73;;;;-58
2019/10/09 05:24:17;;;;;;;1.22;1.12;;;;;;;19.41;56.74;100256.96;;;;-58
2019/10/09 05:27:17;;;;;;;1.31;1.21;;;;;;;19.40;56.75;100259.30;;;;-50
2019/10/09 05:30:16;;;;;;;2.51;1.30;;;;;;;19.41;56.71;100265.20;;;;-51
2019/10/09 05:33:17;;;;;;;1.76;1.38;;;;;;;19.41;56.70;100263.36;;;;-58
2019/10/09 05:36:16;;;;;;;1.46;1.20;;;;;;;19.40;56.75;100275.14;;;;-58
2019/10/09 05:39:16;;;;;;;1.61;1.29;;;;;;;19.41;56.74;100274.14;;;;-57
2019/10/09 05:42:17;;;;;;;1.40;1.30;;;;;;;19.41;56.71;100267.78;;;;-58
2019/10/09 05:45:17;;;;;;;5.27;1.58;;;;;;;19.42;56.88;100263.36;;;;-49
2019/10/09 05:48:17;;;;;;;1.39;1.26;;;;;;;19.42;56.87;100256.60;;;;-48
2019/10/09 05:51:16;;;;;;;1.83;1.41;;;;;;;19.45;57.02;100257.40;;;;-58
2019/10/09 05:54:16;;;;;;;3.01;1.65;;;;;;;19.45;57.02;100259.97;;;;-50
2019/10/09 05:57:16;;;;;;;2.36;1.45;;;;;;;19.44;56.97;100247.98;;;;-50
2019/10/09 06:00:16;;;;;;;1.68;1.37;;;;;;;19.43;56.99;100248.48;;;;-50
2019/10/09 06:03:17;;;;;;;1.92;1.54;;;;;;;19.44;56.95;100245.13;;;;-50
2019/10/09 06:06:16;;;;;;;3.40;1.50;;;;;;;19.45;56.92;100256.99;;;;-50
2019/10/09 06:09:17;;;;;;;2.48;1.50;;;;;;;19.47;56.87;100251.78;;;;-51
2019/10/09 06:12:17;;;;;;;1.95;1.40;;;;;;;19.49;56.75;100249.79;;;;-53
2019/10/09 06:15:17;;;;;;;2.93;1.48;;;;;;;19.52;56.62;100250.48;;;;-53
2019/10/09 06:18:16;;;;;;;2.16;1.40;;;;;;;19.56;56.54;100254.39;;;;-53
2019/10/09 06:21:16;;;;;;;1.71;1.44;;;;;;;19.59;56.56;100247.75;;;;-53
2019/10/09 06:24:16;;;;;;;1.92;1.34;;;;;;;19.62;56.60;100240.23;;;;-53
2019/10/09 06:27:17;;;;;;;2.32;1.35;;;;;;;19.65;56.57;100235.83;;;;-53
2019/10/09 06:30:17;;;;;;;2.23;1.42;;;;;;;19.69;56.69;100232.55;;;;-53
2019/10/09 06:33:16;;;;;;;1.89;1.30;;;;;;;19.72;56.71;100224.34;;;;-53
2019/10/09 06:37:16;;;;;;;2.13;1.40;;;;;;;19.75;56.66;100220.82;;;;-53
2019/10/09 06:40:16;;;;;;;2.95;1.41;;;;;;;19.78;56.73;100222.17;;;;-53
2019/10/09 06:43:17;;;;;;;1.78;1.40;;;;;;;19.81;56.72;100221.62;;;;-52
2019/10/09 06:46:17;;;;;;;2.07;1.39;;;;;;;19.84;56.73;100218.56;;;;-53
2019/10/09 06:49:17;;;;;;;2.05;1.29;;;;;;;19.86;56.68;100210.42;;;;-52
2019/10/09 06:52:17;;;;;;;3.35;1.33;;;;;;;19.88;56.82;100209.50;;;;-53
2019/10/09 06:55:17;;;;;;;1.39;1.29;;;;;;;19.89;56.74;100208.43;;;;-53
2019/10/09 06:58:16;;;;;;;1.49;1.30;;;;;;;19.92;56.78;100210.45;;;;-53
2019/10/09 07:01:17;;;;;;;3.12;1.30;;;;;;;19.94;56.74;100207.34;;;;-53
2019/10/09 07:04:17;;;;;;;1.91;1.43;;;;;;;19.95;56.78;100212.35;;;;-53
2019/10/09 07:07:16;;;;;;;4.91;1.48;;;;;;;19.97;56.70;100216.02;;;;-53
2019/10/09 07:10:17;;;;;;;1.46;1.33;;;;;;;19.98;56.66;100215.78;;;;-53
2019/10/09 07:13:20;;;;;;;1.45;1.25;;;;;;;20.00;56.69;100218.51;;;;-53
2019/10/09 07:16:16;;;;;;;2.02;1.30;;;;;;;20.01;56.67;100221.23;;;;-53
2019/10/09 07:19:16;;;;;;;1.61;1.39;;;;;;;20.02;56.70;100215.77;;;;-53
2019/10/09 07:22:16;;;;;;;1.73;1.25;;;;;;;20.03;56.63;100218.16;;;;-54
2019/10/09 07:25:17;;;;;;;3.03;1.41;;;;;;;20.04;56.60;100215.02;;;;-54
2019/10/09 07:28:17;;;;;;;1.40;1.30;;;;;;;20.05;56.58;100210.92;;;;-53
2019/10/09 07:31:16;;;;;;;1.73;1.30;;;;;;;20.05;56.57;100212.83;;;;-53
2019/10/09 07:34:16;;;;;;;1.35;1.24;;;;;;;20.07;56.55;100220.05;;;;-53
2019/10/09 07:37:16;;;;;;;1.28;1.18;;;;;;;20.07;56.48;100215.30;;;;-53
2019/10/09 07:40:16;;;;;;;1.75;1.34;;;;;;;20.08;56.51;100215.80;;;;-52
2019/10/09 07:43:17;;;;;;;1.42;1.25;;;;;;;20.09;56.49;100220.70;;;;-53
2019/10/09 07:46:17;;;;;;;1.97;1.29;;;;;;;20.09;56.49;100224.89;;;;-53
2019/10/09 07:49:17;;;;;;;1.35;1.20;;;;;;;20.10;56.38;100227.55;;;;-54
2019/10/09 07:52:17;;;;;;;1.30;1.20;;;;;;;20.10;56.30;100220.23;;;;-53
2019/10/09 07:55:17;;;;;;;1.69;1.23;;;;;;;20.10;56.36;100215.30;;;;-53
2019/10/09 07:58:16;;;;;;;2.11;1.32;;;;;;;20.09;56.33;100208.39;;;;-53
2019/10/09 08:01:17;;;;;;;1.50;1.27;;;;;;;20.09;56.27;100207.89;;;;-53
2019/10/09 08:04:17;;;;;;;1.40;1.29;;;;;;;20.09;56.30;100205.88;;;;-54
2019/10/09 08:07:16;;;;;;;1.49;1.20;;;;;;;20.09;56.21;100195.55;;;;-53
2019/10/09 08:10:17;;;;;;;1.67;1.32;;;;;;;20.09;56.17;100190.95;;;;-53
2019/10/09 08:13:17;;;;;;;1.67;1.30;;;;;;;20.08;56.07;100187.91;;;;-52
2019/10/09 08:16:16;;;;;;;1.75;1.20;;;;;;;20.07;56.14;100188.70;;;;-53
2019/10/09 08:19:16;;;;;;;1.24;1.10;;;;;;;20.07;55.97;100175.39;;;;-53
2019/10/09 08:22:17;;;;;;;1.22;1.12;;;;;;;20.07;56.03;100184.91;;;;-52
2019/10/09 08:25:17;;;;;;;1.08;1.03;;;;;;;20.06;55.96;100186.42;;;;-53
2019/10/09 08:28:16;;;;;;;1.30;1.20;;;;;;;20.05;55.92;100192.15;;;;-53
2019/10/09 08:31:17;;;;;;;1.55;1.29;;;;;;;20.05;55.97;100185.78;;;;-54
2019/10/09 08:34:17;;;;;;;1.31;1.20;;;;;;;20.05;56.02;100188.06;;;;-53
2019/10/09 08:37:17;;;;;;;1.45;1.24;;;;;;;20.04;55.95;100173.27;;;;-53
2019/10/09 08:40:17;;;;;;;1.47;1.30;;;;;;;20.04;55.96;100182.55;;;;-53
2019/10/09 08:43:16;;;;;;;1.25;1.18;;;;;;;20.03;55.92;100173.23;;;;-53
2019/10/09 08:46:16;;;;;;;1.39;1.20;;;;;;;20.03;55.96;100161.23;;;;-53
2019/10/09 08:49:16;;;;;;;1.28;1.13;;;;;;;20.03;55.97;100157.94;;;;-52
2019/10/09 08:52:17;;;;;;;1.13;1.07;;;;;;;20.02;55.96;100152.81;;;;-53
2019/10/09 08:55:17;;;;;;;1.03;1.02;;;;;;;20.02;55.93;100159.61;;;;-50
2019/10/09 08:58:17;;;;;;;1.21;1.10;;;;;;;20.02;55.96;100162.20;;;;-50
2019/10/09 09:01:16;;;;;;;1.35;1.20;;;;;;;20.01;55.95;100164.34;;;;-50
2019/10/09 09:04:16;;;;;;;1.23;1.12;;;;;;;20.01;55.99;100168.20;;;;-50
2019/10/09 09:07:17;;;;;;;1.14;1.09;;;;;;;20.00;56.05;100163.39;;;;-50
2019/10/09 09:10:17;;;;;;;1.26;1.16;;;;;;;20.00;55.97;100160.68;;;;-50
2019/10/09 09:14:16;;;;;;;1.61;1.13;;;;;;;19.99;56.00;100163.83;;;;-50
2019/10/09 09:17:17;;;;;;;1.37;1.15;;;;;;;19.99;56.00;100165.27;;;;-51
2019/10/09 09:20:16;;;;;;;1.36;1.13;;;;;;;19.99;56.02;100161.18;;;;-51
2019/10/09 09:23:17;;;;;;;1.46;1.20;;;;;;;19.97;56.03;100155.81;;;;-50
2019/10/09 09:26:16;;;;;;;1.25;1.15;;;;;;;19.97;56.00;100143.07;;;;-51
2019/10/09 09:29:16;;;;;;;1.60;1.27;;;;;;;19.98;56.03;100141.97;;;;-51
2019/10/09 09:32:16;;;;;;;1.47;1.20;;;;;;;19.96;56.04;100141.19;;;;-50
2019/10/09 09:35:17;;;;;;;1.29;1.14;;;;;;;19.96;56.09;100131.44;;;;-50
2019/10/09 09:38:16;;;;;;;1.30;1.20;;;;;;;19.96;56.06;100120.54;;;;-50
2019/10/09 09:41:16;;;;;;;1.49;1.28;;;;;;;19.95;56.09;100116.48;;;;-50
2019/10/09 09:44:16;;;;;;;1.23;1.13;;;;;;;19.94;56.12;100112.59;;;;-50
2019/10/09 09:47:16;;;;;;;1.39;1.19;;;;;;;19.94;56.13;100110.81;;;;-50
2019/10/09 09:50:16;;;;;;;1.44;1.32;;;;;;;19.93;56.10;100107.29;;;;-51
2019/10/09 09:53:16;;;;;;;1.33;1.12;;;;;;;19.92;56.12;100112.55;;;;-50
2019/10/09 09:56:16;;;;;;;1.30;1.20;;;;;;;19.91;56.16;100113.85;;;;-50
2019/10/09 09:59:16;;;;;;;1.25;1.15;;;;;;;19.90;56.19;100108.12;;;;-50
2019/10/09 10:02:17;;;;;;;1.30;1.20;;;;;;;19.90;56.18;100100.38;;;;-50
2019/10/09 10:05:16;;;;;;;1.12;1.05;;;;;;;19.89;56.19;100096.41;;;;-50
2019/10/09 10:08:17;;;;;;;1.18;1.13;;;;;;;19.89;56.21;100099.27;;;;-50
2019/10/09 10:11:16;;;;;;;1.23;1.13;;;;;;;19.89;56.23;100092.56;;;;-51
2019/10/09 10:14:17;;;;;;;1.37;1.27;;;;;;;19.89;56.25;100094.73;;;;-50
2019/10/09 10:17:16;;;;;;;1.10;1.00;;;;;;;19.88;56.23;100083.98;;;;-50
2019/10/09 10:20:16;;;;;;;1.19;1.09;;;;;;;19.87;56.21;100076.47;;;;-50
2019/10/09 10:23:17;;;;;;;1.24;1.14;;;;;;;19.87;56.22;100068.42;;;;-51
2019/10/09 10:26:16;;;;;;;1.25;1.15;;;;;;;19.86;56.21;100059.34;;;;-50
2019/10/09 10:29:17;;;;;;;1.90;1.13;;;;;;;19.85;56.21;100044.42;;;;-50
2019/10/09 10:32:16;;;;;;;1.28;1.18;;;;;;;19.85;56.19;100025.55;;;;-51
2019/10/09 10:35:16;;;;;;;1.29;1.20;;;;;;;19.85;56.22;100022.53;;;;-50
2019/10/09 10:38:17;;;;;;;1.23;1.13;;;;;;;19.84;56.20;100014.72;;;;-51
2019/10/09 10:41:16;;;;;;;1.04;1.04;;;;;;;19.84;56.24;100023.67;;;;-50
2019/10/09 10:44:16;;;;;;;1.29;1.19;;;;;;;19.83;56.26;100031.61;;;;-50
2019/10/09 10:47:16;;;;;;;1.15;1.02;;;;;;;19.83;56.22;100032.02;;;;-50
2019/10/09 10:50:16;;;;;;;1.14;1.09;;;;;;;19.83;56.26;100037.55;;;;-50
2019/10/09 10:53:17;;;;;;;1.27;1.17;;;;;;;19.82;56.22;100032.41;;;;-50
2019/10/09 10:56:17;;;;;;;0.95;0.95;;;;;;;19.81;56.24;100037.23;;;;-50
2019/10/09 10:59:16;;;;;;;1.19;1.13;;;;;;;19.81;56.24;100038.31;;;;-51
2019/10/09 11:02:17;;;;;;;1.00;1.00;;;;;;;19.81;56.26;100046.45;;;;-51
2019/10/09 11:05:16;;;;;;;1.25;1.14;;;;;;;19.80;56.26;100041.80;;;;-50
2019/10/09 11:08:16;;;;;;;1.29;1.18;;;;;;;19.79;56.29;100032.54;;;;-50
2019/10/09 11:11:16;;;;;;;1.16;1.06;;;;;;;19.79;56.22;100024.94;;;;-50
2019/10/09 11:14:16;;;;;;;0.97;0.97;;;;;;;19.79;56.30;100015.21;;;;-52
2019/10/09 11:17:16;;;;;;;1.00;1.00;;;;;;;19.78;56.30;100005.52;;;;-51
2019/10/09 11:20:16;;;;;;;1.23;1.12;;;;;;;19.78;56.31;100007.80;;;;-50
2019/10/09 11:23:16;;;;;;;1.33;1.23;;;;;;;19.77;56.25;99997.55;;;;-50
2019/10/09 11:26:16;;;;;;;1.20;1.10;;;;;;;19.78;56.25;99993.13;;;;-50
2019/10/09 11:29:16;;;;;;;1.21;1.13;;;;;;;19.77;56.28;99982.70;;;;-50
2019/10/09 11:32:16;;;;;;;1.17;1.07;;;;;;;19.76;56.25;99978.31;;;;-50
2019/10/09 11:35:16;;;;;;;1.10;1.10;;;;;;;19.76;56.22;99984.34;;;;-53
2019/10/09 11:38:16;;;;;;;1.22;1.12;;;;;;;19.76;56.28;99987.96;;;;-53
2019/10/09 11:41:16;;;;;;;1.05;0.96;;;;;;;19.75;56.25;99974.69;;;;-53
2019/10/09 11:44:16;;;;;;;1.07;1.07;;;;;;;19.74;56.25;99975.99;;;;-53
2019/10/09 11:47:19;;;;;;;1.10;1.10;;;;;;;19.74;56.26;99974.66;;;;-53
2019/10/09 11:55:17;;;;;;;1.07;1.00;;;;;;;19.72;56.31;99985.91;;;;-53
2019/10/09 11:58:17;;;;;;;1.13;1.03;;;;;;;19.72;56.31;99995.53;;;;-53
2019/10/09 12:01:18;;;;;;;1.21;1.11;;;;;;;19.72;56.27;99990.40;;;;-53
2019/10/09 12:04:17;;;;;;;1.03;1.03;;;;;;;19.72;56.29;99992.75;;;;-53
2019/10/09 12:07:17;;;;;;;1.16;1.11;;;;;;;19.71;56.31;99992.41;;;;-53
2019/10/09 12:10:17;;;;;;;0.96;0.96;;;;;;;19.71;56.31;99995.55;;;;-53
2019/10/09 12:13:17;;;;;;;1.21;1.11;;;;;;;19.71;56.29;99997.13;;;;-53
2019/10/09 12:16:17;;;;;;;1.22;1.12;;;;;;;19.70;56.24;99997.56;;;;-53
2019/10/09 12:19:17;;;;;;;0.97;0.97;;;;;;;19.70;56.32;99996.26;;;;-54
2019/10/09 12:22:17;;;;;;;1.29;1.00;;;;;;;19.70;56.33;99997.43;;;;-53
2019/10/09 12:25:17;;;;;;;1.19;1.10;;;;;;;19.70;56.33;100007.31;;;;-53
2019/10/09 12:28:17;;;;;;;1.11;1.10;;;;;;;19.69;56.32;100006.30;;;;-53
2019/10/09 12:31:17;;;;;;;1.11;1.10;;;;;;;19.69;56.27;100006.70;;;;-53
2019/10/09 12:34:17;;;;;;;1.00;1.00;;;;;;;19.68;56.31;100013.47;;;;-53
2019/10/09 12:37:17;;;;;;;1.62;1.09;;;;;;;19.67;56.31;100010.99;;;;-53
2019/10/09 12:40:17;;;;;;;1.07;1.05;;;;;;;19.67;56.34;100019.47;;;;-53
2019/10/09 12:43:17;;;;;;;1.05;1.00;;;;;;;19.67;56.35;100016.19;;;;-53
2019/10/09 12:46:17;;;;;;;1.12;1.07;;;;;;;19.66;56.32;100014.30;;;;-53
2019/10/09 12:49:16;;;;;;;1.18;1.12;;;;;;;19.66;56.37;100011.32;;;;-53
2019/10/09 12:52:17;;;;;;;1.01;1.00;;;;;;;19.65;56.34;100015.81;;;;-53
2019/10/09 12:55:17;;;;;;;1.08;1.08;;;;;;;19.65;56.38;100003.31;;;;-53
2019/10/09 12:58:17;;;;;;;1.03;1.02;;;;;;;19.64;56.38;100005.72;;;;-53
2019/10/09 13:01:17;;;;;;;1.13;1.00;;;;;;;19.64;56.38;100006.05;;;;-53
2019/10/09 13:04:17;;;;;;;0.93;0.93;;;;;;;19.64;56.35;100009.58;;;;-53
2019/10/09 13:07:17;;;;;;;1.00;1.00;;;;;;;19.63;56.37;100009.70;;;;-53
2019/10/09 13:10:17;;;;;;;1.19;1.15;;;;;;;19.64;56.37;99997.75;;;;-53
2019/10/09 13:13:17;;;;;;;1.26;1.16;;;;;;;19.63;56.41;99996.61;;;;-53
2019/10/09 13:16:17;;;;;;;0.98;0.98;;;;;;;19.62;56.40;99987.45;;;;-53
2019/10/09 13:19:17;;;;;;;1.21;1.13;;;;;;;19.62;56.39;99982.59;;;;-53
2019/10/09 13:22:17;;;;;;;1.31;1.19;;;;;;;19.62;56.41;99984.84;;;;-53
2019/10/09 13:25:16;;;;;;;0.99;0.99;;;;;;;19.61;56.41;99985.75;;;;-53
2019/10/09 13:28:17;;;;;;;1.07;1.03;;;;;;;19.61;56.38;99979.11;;;;-53
2019/10/09 13:31:16;;;;;;;1.01;1.00;;;;;;;19.60;56.39;99977.50;;;;-53
2019/10/09 13:34:17;;;;;;;1.11;1.10;;;;;;;19.60;56.43;99989.30;;;;-53
2019/10/09 13:37:17;;;;;;;1.11;1.01;;;;;;;19.60;56.41;99987.05;;;;-53
2019/10/09 13:40:17;;;;;;;1.01;1.01;;;;;;;19.59;56.41;99981.25;;;;-53
2019/10/09 13:43:17;;;;;;;1.00;1.00;;;;;;;19.59;56.42;99987.78;;;;-53
2019/10/09 13:46:17;;;;;;;1.17;1.07;;;;;;;19.59;56.44;99992.14;;;;-53
2019/10/09 13:49:17;;;;;;;1.19;1.11;;;;;;;19.59;56.45;99986.34;;;;-53
2019/10/09 13:52:17;;;;;;;1.17;1.11;;;;;;;19.58;56.44;99984.90;;;;-53
2019/10/09 13:55:17;;;;;;;1.15;1.10;;;;;;;19.58;56.47;99988.15;;;;-53
2019/10/09 13:58:17;;;;;;;1.03;1.02;;;;;;;19.58;56.46;99989.82;;;;-53
2019/10/09 14:01:17;;;;;;;1.00;1.00;;;;;;;19.58;56.43;99989.42;;;;-53
2019/10/09 14:04:16;;;;;;;1.07;1.07;;;;;;;19.58;56.43;99981.95;;;;-53
2019/10/09 14:07:17;;;;;;;0.99;0.99;;;;;;;19.57;56.45;99976.72;;;;-53
2019/10/09 14:10:17;;;;;;;1.00;1.00;;;;;;;19.57;56.43;99974.55;;;;-53
2019/10/09 14:13:17;;;;;;;1.14;1.04;;;;;;;19.56;56.46;99963.28;;;;-53
2019/10/09 14:16:16;;;;;;;1.09;1.09;;;;;;;19.56;56.44;99973.50;;;;-53
2019/10/09 14:19:17;;;;;;;1.05;1.05;;;;;;;19.56;56.48;99980.88;;;;-53
2019/10/09 14:22:16;;;;;;;1.00;1.00;;;;;;;19.55;56.45;99981.61;;;;-53
2019/10/09 14:25:17;;;;;;;1.00;1.00;;;;;;;19.55;56.46;99981.77;;;;-53
2019/10/09 14:28:17;;;;;;;1.13;1.03;;;;;;;19.54;56.47;99982.98;;;;-53
2019/10/09 14:31:17;;;;;;;1.07;1.01;;;;;;;19.54;56.47;99978.13;;;;-53
2019/10/09 14:34:17;;;;;;;1.01;1.01;;;;;;;19.53;56.47;99979.53;;;;-52
2019/10/09 14:37:17;;;;;;;1.00;1.00;;;;;;;19.54;56.46;99977.28;;;;-53
2019/10/09 14:40:17;;;;;;;0.88;0.88;;;;;;;19.53;56.49;99969.71;;;;-53
2019/10/09 14:43:17;;;;;;;0.97;0.97;;;;;;;19.54;56.46;99970.58;;;;-53
2019/10/09 14:49:22;;;;;;;1.15;1.10;;;;;;;19.55;56.49;99966.09;;;;-49
2019/10/09 14:52:16;;;;;;;3.33;1.57;;;;;;;19.57;56.82;99958.91;;;;-50
2019/10/09 14:55:16;;;;;;;1.62;1.20;;;;;;;19.58;56.93;99961.34;;;;-49
2019/10/09 14:58:17;;;;;;;3.25;1.33;;;;;;;19.61;56.86;99965.04;;;;-51
2019/10/09 15:01:17;;;;;;;1.38;1.20;;;;;;;19.60;56.90;99970.56;;;;-49
2019/10/09 15:04:17;;;;;;;4.04;1.20;;;;;;;19.61;56.94;99958.11;;;;-48
2019/10/09 15:07:17;;;;;;;1.35;1.20;;;;;;;19.63;56.89;99967.16;;;;-45
2019/10/09 15:10:17;;;;;;;7.25;1.38;;;;;;;19.66;57.04;99969.58;;;;-50
2019/10/09 15:13:17;;;;;;;2.17;1.16;;;;;;;19.67;57.02;99970.66;;;;-45
2019/10/09 15:16:17;;;;;;;2.61;1.31;;;;;;;19.71;56.99;99972.47;;;;-50
2019/10/09 15:19:17;;;;;;;1.60;1.20;;;;;;;19.74;57.09;99979.01;;;;-48
2019/10/09 15:22:17;;;;;;;1.64;1.10;;;;;;;19.77;57.09;99989.51;;;;-48
2019/10/09 15:25:16;;;;;;;1.87;1.29;;;;;;;19.77;57.06;99991.35;;;;-51
2019/10/09 15:28:16;;;;;;;4.01;1.24;;;;;;;19.79;57.03;100001.64;;;;-45
2019/10/09 15:31:17;;;;;;;3.63;1.45;;;;;;;19.79;56.98;100001.14;;;;-58
2019/10/09 15:34:17;;;;;;;2.36;1.19;;;;;;;19.81;57.00;100009.48;;;;-47
2019/10/09 15:37:17;;;;;;;2.90;1.30;;;;;;;19.82;57.30;100015.16;;;;-46
2019/10/09 15:40:17;;;;;;;5.49;1.42;;;;;;;19.82;57.14;100021.86;;;;-54
2019/10/09 15:43:16;;;;;;;3.37;1.45;;;;;;;19.82;57.12;100023.59;;;;-49
2019/10/09 15:46:18;;;;;;;3.55;1.35;;;;;;;19.82;56.98;100023.20;;;;-46
2019/10/09 15:49:17;;;;;;;3.40;1.35;;;;;;;19.82;57.07;100024.20;;;;-56
2019/10/09 15:52:17;;;;;;;3.67;1.44;;;;;;;19.83;57.30;100024.98;;;;-44
2019/10/09 15:55:17;;;;;;;5.44;1.82;;;;;;;19.84;57.13;100014.86;;;;-57
2019/10/09 15:58:17;;;;;;;5.58;1.67;;;;;;;19.87;57.00;100022.54;;;;-47
2019/10/09 16:01:17;;;;;;;5.24;1.60;;;;;;;19.90;56.98;100024.05;;;;-44
2019/10/09 16:04:17;;;;;;;7.48;1.65;;;;;;;19.91;57.03;100017.55;;;;-56
2019/10/09 16:07:17;;;;;;;3.93;1.70;;;;;;;19.90;57.06;100029.41;;;;-56
2019/10/09 16:10:17;;;;;;;4.07;1.62;;;;;;;19.89;57.01;100032.16;;;;-59
2019/10/09 16:13:17;;;;;;;3.43;1.55;;;;;;;19.92;57.05;100040.02;;;;-50
2019/10/09 16:16:16;;;;;;;7.75;1.83;;;;;;;19.91;57.23;100040.75;;;;-52
2019/10/09 16:19:17;;;;;;;4.89;1.89;;;;;;;19.91;56.96;100033.87;;;;-61
2019/10/09 16:22:17;;;;;;;3.48;1.68;;;;;;;19.91;57.04;100040.28;;;;-49
2019/10/09 16:25:17;;;;;;;4.54;1.86;;;;;;;19.92;57.03;100039.11;;;;-46
2019/10/09 16:28:17;;;;;;;5.63;2.37;;;;;;;19.92;56.92;100037.67;;;;-49
2019/10/09 16:31:17;;;;;;;5.45;2.38;;;;;;;19.91;57.02;100039.84;;;;-49
2019/10/09 16:34:17;;;;;;;5.97;2.55;;;;;;;19.92;56.97;100042.56;;;;-53
2019/10/09 16:37:17;;;;;;;8.98;2.77;;;;;;;19.93;57.02;100037.00;;;;-52
2019/10/09 16:40:16;;;;;;;3.96;2.73;;;;;;;19.93;57.00;100028.78;;;;-52
2019/10/09 16:43:17;;;;;;;4.49;2.77;;;;;;;19.94;56.95;100022.19;;;;-57
2019/10/09 16:46:17;;;;;;;5.53;3.17;;;;;;;19.95;56.92;100029.33;;;;-52
2019/10/09 16:49:17;;;;;;;7.43;2.98;;;;;;;19.95;56.99;100027.65;;;;-58
2019/10/09 16:52:17;;;;;;;5.46;2.95;;;;;;;19.95;56.90;100029.93;;;;-51
2019/10/09 16:55:17;;;;;;;6.11;3.07;;;;;;;19.94;56.89;100029.16;;;;-56
2019/10/09 16:58:17;;;;;;;7.98;3.18;;;;;;;19.95;56.90;100031.34;;;;-50